Time;durP1;ratioP1;P1;durP2;ratioP2;P2;SDS_P1;SDS_P2;PMS_P1;PMS_P2;Temp;Humidity;BMP_temperature;BMP_pressure;BME280_temperature;BME280_humidity;BME280_pressure;Samples;Min_cycle;Max_cycle;Signal;HPM_P1;HPM_P2
2022/01/10 00:00:19;;;;;;;61.00;27.30;;;;;;;-4.18;67.62;99666.21;130344;1267;108822;-72
2022/01/10 00:03:43;;;;;;;65.60;27.20;;;;;;;-4.20;67.31;99668.93;130062;1267;352662;-74
2022/01/10 00:06:49;;;;;;;64.50;28.10;;;;;;;-4.18;67.58;99676.49;130465;1267;107339;-72
2022/01/10 00:09:54;;;;;;;60.10;25.80;;;;;;;-4.19;67.76;99678.09;130357;1267;108853;-74
2022/01/10 00:13:00;;;;;;;60.90;26.30;;;;;;;-4.21;67.67;99683.03;130324;1267;108709;-73
2022/01/10 00:16:06;;;;;;;67.60;27.80;;;;;;;-4.22;67.80;99685.19;130361;1267;107978;-72
2022/01/10 00:19:11;;;;;;;77.30;30.60;;;;;;;-4.24;67.64;99687.02;130377;1267;108860;-72
2022/01/10 00:22:17;;;;;;;74.80;30.50;;;;;;;-4.27;67.53;99679.70;130412;1267;108790;-72
2022/01/10 00:25:24;;;;;;;72.20;29.60;;;;;;;-4.30;67.67;99680.71;130369;1266;109739;-73
2022/01/10 00:28:29;;;;;;;66.30;28.90;;;;;;;-4.32;67.59;99684.79;130375;1267;107776;-74
2022/01/10 00:31:35;;;;;;;68.70;29.50;;;;;;;-4.34;67.49;99683.84;130397;1267;108652;-74
2022/01/10 00:34:40;;;;;;;69.30;28.90;;;;;;;-4.35;67.29;99687.17;130257;1266;109088;-74
2022/01/10 00:37:46;;;;;;;74.20;31.20;;;;;;;-4.38;67.49;99693.89;130341;1267;108243;-74
2022/01/10 00:40:52;;;;;;;88.10;35.70;;;;;;;-4.38;67.84;99698.58;130336;1266;108881;-72
2022/01/10 00:44:00;;;;;;;86.40;34.40;;;;;;;-4.36;67.64;99698.50;130377;1267;108870;-72
2022/01/10 00:47:06;;;;;;;91.20;36.70;;;;;;;-4.31;67.51;99708.35;130349;1267;108626;-73
2022/01/10 00:50:12;;;;;;;63.80;27.40;;;;;;;-4.30;67.36;99721.32;130406;1267;108778;-73
2022/01/10 00:53:18;;;;;;;62.80;27.60;;;;;;;-4.27;67.34;99726.94;130374;1267;107685;-72
2022/01/10 00:56:24;;;;;;;66.00;28.70;;;;;;;-4.24;67.13;99733.39;130356;1267;108729;-74
2022/01/10 00:59:30;;;;;;;69.10;28.60;;;;;;;-4.25;66.70;99738.63;130306;1266;107711;-72
2022/01/10 01:02:35;;;;;;;73.20;29.40;;;;;;;-4.24;67.20;99740.51;130390;1266;108781;-71
2022/01/10 01:05:43;;;;;;;72.30;30.40;;;;;;;-4.26;67.13;99746.85;130282;1266;108787;-72
2022/01/10 01:08:48;;;;;;;71.90;30.70;;;;;;;-4.29;67.01;99754.80;130318;1267;108799;-71
2022/01/10 01:12:12;;;;;;;69.70;29.40;;;;;;;-4.32;67.01;99754.59;130330;1267;111941;-73
2022/01/10 01:15:21;;;;;;;72.90;30.80;;;;;;;-4.35;67.16;99756.80;130305;1266;108959;-74
2022/01/10 01:19:01;;;;;;;71.00;30.10;;;;;;;-4.37;66.96;99757.75;130374;1267;108805;-73
2022/01/10 01:25:22;;;;;;;74.20;29.70;;;;;;;-4.46;66.96;99764.10;130334;1267;108513;-73
2022/01/10 01:28:28;;;;;;;76.70;30.70;;;;;;;-4.51;66.99;99766.38;130354;1266;108702;-72
2022/01/10 01:31:35;;;;;;;79.00;31.70;;;;;;;-4.53;66.95;99759.38;130349;1267;108756;-72
2022/01/10 01:34:41;;;;;;;80.10;32.40;;;;;;;-4.58;66.98;99762.16;130394;1266;108724;-72
2022/01/10 01:37:46;;;;;;;85.20;35.30;;;;;;;-4.59;67.04;99765.89;130356;1267;107470;-73
2022/01/10 01:40:58;;;;;;;81.60;33.10;;;;;;;-4.61;66.91;99761.28;130319;1267;107485;-73
2022/01/10 01:44:06;;;;;;;82.10;31.20;;;;;;;-4.65;67.01;99761.63;130332;1267;108833;-73
2022/01/10 01:47:11;;;;;;;73.00;30.10;;;;;;;-4.70;66.90;99763.94;130407;1267;108646;-73
2022/01/10 01:50:18;;;;;;;75.40;30.90;;;;;;;-4.78;66.82;99769.30;130353;1267;108957;-74
2022/01/10 01:53:24;;;;;;;69.00;28.90;;;;;;;-4.80;67.07;99774.82;130379;1267;108925;-73
2022/01/10 01:56:30;;;;;;;69.50;28.10;;;;;;;-4.83;67.08;99776.65;130385;1267;108839;-73
2022/01/10 01:59:37;;;;;;;70.30;29.60;;;;;;;-4.86;66.89;99786.16;130473;1266;107711;-72
2022/01/10 02:02:42;;;;;;;77.60;30.90;;;;;;;-4.86;66.64;99794.52;130325;1267;108635;-73
2022/01/10 02:05:48;;;;;;;75.80;31.50;;;;;;;-4.89;67.03;99800.70;130257;1267;109368;-73
2022/01/10 02:08:54;;;;;;;85.50;33.40;;;;;;;-4.89;66.85;99809.02;130235;1267;107911;-72
2022/01/10 02:11:59;;;;;;;80.20;31.50;;;;;;;-4.89;66.95;99811.10;130512;1267;108750;-73
2022/01/10 02:15:06;;;;;;;83.50;32.40;;;;;;;-4.90;66.84;99812.54;130253;1267;107617;-72
2022/01/10 02:18:14;;;;;;;77.80;32.60;;;;;;;-4.93;66.55;99815.81;130235;1267;107208;-72
2022/01/10 02:21:24;;;;;;;81.00;34.90;;;;;;;-4.93;67.08;99821.34;130156;1267;108907;-72
2022/01/10 02:24:30;;;;;;;85.10;34.20;;;;;;;-4.92;66.87;99820.44;130409;1267;108964;-73
2022/01/10 02:27:37;;;;;;;84.90;34.30;;;;;;;-4.94;66.91;99823.98;130337;1267;107713;-72
2022/01/10 02:30:43;;;;;;;78.40;32.20;;;;;;;-4.94;67.24;99835.08;130249;1267;107681;-73
2022/01/10 02:33:51;;;;;;;79.90;32.80;;;;;;;-4.94;67.33;99840.98;130356;1266;108945;-73
2022/01/10 02:36:59;;;;;;;75.00;31.00;;;;;;;-4.93;67.71;99842.85;130320;1267;108924;-73
2022/01/10 02:40:08;;;;;;;57.10;25.80;;;;;;;-4.89;68.39;99849.30;130598;1267;108924;-73
2022/01/10 02:43:14;;;;;;;72.20;29.10;;;;;;;-4.77;69.34;99852.72;130296;1267;108800;-72
2022/01/10 02:46:20;;;;;;;64.00;28.40;;;;;;;-4.60;69.65;99851.82;130272;1267;108786;-71
2022/01/10 02:49:28;;;;;;;66.00;26.80;;;;;;;-4.41;69.66;99850.48;130157;1267;108845;-71
2022/01/10 02:52:35;;;;;;;56.90;24.70;;;;;;;-4.17;69.71;99855.14;130186;1267;108737;-71
2022/01/10 02:55:41;;;;;;;55.40;22.10;;;;;;;-3.91;69.97;99856.91;130321;1265;108754;-71
2022/01/10 02:58:47;;;;;;;58.20;24.40;;;;;;;-3.71;70.02;99859.81;130306;1267;108879;-73
2022/01/10 03:01:54;;;;;;;55.50;23.10;;;;;;;-3.54;69.81;99865.23;130396;1267;108716;-73
2022/01/10 03:05:00;;;;;;;49.00;22.00;;;;;;;-3.39;69.89;99867.47;130328;1267;108911;-71
2022/01/10 03:08:07;;;;;;;53.20;23.30;;;;;;;-3.27;70.09;99865.33;130454;1266;108748;-71
2022/01/10 03:11:12;;;;;;;52.70;23.40;;;;;;;-3.18;70.26;99868.56;130320;1267;109121;-71
2022/01/10 03:14:18;;;;;;;50.00;21.90;;;;;;;-3.14;70.27;99876.20;130242;1267;108720;-71
2022/01/10 03:17:23;;;;;;;53.00;23.40;;;;;;;-3.13;70.18;99879.98;130273;1267;106638;-72
2022/01/10 03:20:29;;;;;;;47.80;21.90;;;;;;;-3.13;70.47;99886.61;130327;1267;107187;-70
2022/01/10 03:23:34;;;;;;;50.00;21.20;;;;;;;-3.12;70.51;99897.14;130389;1267;108792;-71
2022/01/10 03:26:40;;;;;;;48.50;22.00;;;;;;;-3.09;70.77;99911.94;130452;1267;109683;-71
2022/01/10 03:29:46;;;;;;;46.00;21.70;;;;;;;-3.05;70.68;99918.71;130452;1267;108986;-70
2022/01/10 03:32:51;;;;;;;53.00;23.50;;;;;;;-3.02;70.72;99925.86;130339;1267;108741;-69
2022/01/10 03:36:05;;;;;;;56.70;23.20;;;;;;;-2.98;70.78;99931.95;130352;1267;107943;-68
2022/01/10 03:39:10;;;;;;;51.70;22.20;;;;;;;-2.93;71.02;99935.91;130316;1267;108780;-70
2022/01/10 03:42:16;;;;;;;54.40;24.20;;;;;;;-2.85;71.05;99940.38;130182;1267;108872;-71
2022/01/10 03:45:22;;;;;;;49.30;20.80;;;;;;;-2.73;71.24;99943.27;130361;1267;108709;-71
2022/01/10 03:48:28;;;;;;;51.10;21.60;;;;;;;-2.63;70.70;99955.64;130413;1267;109180;-72
2022/01/10 03:51:33;;;;;;;52.80;22.90;;;;;;;-2.54;70.86;99961.13;130304;1267;108892;-73
2022/01/10 03:54:39;;;;;;;48.50;20.70;;;;;;;-2.48;71.20;99961.89;130288;1267;109689;-71
2022/01/10 03:57:45;;;;;;;52.70;23.20;;;;;;;-2.46;71.07;99965.05;130476;1267;107702;-74
2022/01/10 04:00:51;;;;;;;46.80;20.80;;;;;;;-2.45;70.98;99965.54;130491;1267;108814;-72
2022/01/10 04:03:56;;;;;;;44.40;21.00;;;;;;;-2.45;71.14;99968.14;130725;1267;108734;-74
2022/01/10 04:07:02;;;;;;;50.60;21.30;;;;;;;-2.44;71.00;99980.84;130451;1265;108732;-74
2022/01/10 04:10:09;;;;;;;54.00;22.20;;;;;;;-2.46;71.24;99988.05;130333;1267;108789;-76
2022/01/10 04:13:15;;;;;;;45.80;20.60;;;;;;;-2.50;70.93;99996.83;130436;1266;108759;-76
2022/01/10 04:16:21;;;;;;;46.20;20.60;;;;;;;-2.55;71.06;100002.10;130461;1267;108812;-75
2022/01/10 04:19:27;;;;;;;47.40;21.00;;;;;;;-2.56;71.22;100009.13;130454;1267;108875;-76
2022/01/10 04:22:33;;;;;;;51.30;21.10;;;;;;;-2.61;71.26;100018.27;130446;1267;106650;-75
2022/01/10 04:25:40;;;;;;;52.90;22.70;;;;;;;-2.63;71.41;100019.89;130546;1267;108800;-74
2022/01/10 04:28:46;;;;;;;56.20;22.40;;;;;;;-2.59;71.27;100029.08;130512;1267;108681;-76
2022/01/10 04:31:52;;;;;;;53.90;21.80;;;;;;;-2.52;71.12;100036.79;130433;1267;108861;-75
2022/01/10 04:34:58;;;;;;;52.60;21.50;;;;;;;-2.47;71.46;100036.55;130279;1267;108882;-77
2022/01/10 04:38:03;;;;;;;51.60;22.20;;;;;;;-2.39;71.20;100042.26;130331;1267;108775;-75
2022/01/10 04:41:09;;;;;;;49.40;21.50;;;;;;;-2.32;71.22;100048.86;130321;1267;108744;-75
2022/01/10 04:44:15;;;;;;;46.40;20.60;;;;;;;-2.30;71.32;100057.48;130591;1267;108683;-74
2022/01/10 04:47:21;;;;;;;47.20;19.60;;;;;;;-2.30;71.17;100056.44;130563;1267;107474;-75
2022/01/10 04:50:59;;;;;;;49.60;20.90;;;;;;;-2.28;71.47;100063.66;130294;1267;108997;-75
2022/01/10 04:54:02;;;;;;;44.50;20.50;;;;;;;-2.30;71.49;100068.13;130390;1267;108891;-75
2022/01/10 04:57:09;;;;;;;43.40;20.00;;;;;;;-2.33;71.48;100069.33;130453;1267;109128;-74
2022/01/10 05:00:17;;;;;;;45.30;21.70;;;;;;;-2.39;71.58;100072.19;130485;1267;109329;-74
2022/01/10 05:03:23;;;;;;;41.70;21.00;;;;;;;-2.41;71.59;100079.60;130398;1267;108957;-75
2022/01/10 05:06:29;;;;;;;61.90;28.80;;;;;;;-2.42;71.62;100090.95;130486;1267;107663;-75
2022/01/10 05:09:35;;;;;;;57.70;22.80;;;;;;;-2.43;71.74;100092.26;130280;1267;107284;-75
2022/01/10 05:12:44;;;;;;;48.40;19.80;;;;;;;-2.46;71.82;100096.73;130503;1266;108743;-75
2022/01/10 05:15:50;;;;;;;45.20;18.00;;;;;;;-2.47;71.83;100099.90;129982;1267;109717;-74
2022/01/10 05:18:57;;;;;;;41.90;19.10;;;;;;;-2.40;71.86;100102.73;130441;1267;108963;-75
2022/01/10 05:22:02;;;;;;;36.00;15.80;;;;;;;-2.32;71.85;100106.19;130335;1267;108679;-75
2022/01/10 05:25:09;;;;;;;42.70;18.00;;;;;;;-2.25;71.96;100107.06;130302;1267;108736;-76
2022/01/10 05:28:19;;;;;;;41.80;18.30;;;;;;;-2.19;71.83;100108.52;130427;1267;108857;-76
2022/01/10 05:31:24;;;;;;;42.80;19.40;;;;;;;-2.19;71.81;100111.81;130360;1267;108848;-74
2022/01/10 05:34:42;;;;;;;40.30;18.30;;;;;;;-2.22;71.71;100120.83;130438;1267;108732;-75
2022/01/10 05:37:47;;;;;;;36.30;16.40;;;;;;;-2.25;71.81;100127.79;130317;1267;107429;-76
2022/01/10 05:40:53;;;;;;;35.10;16.30;;;;;;;-2.28;71.79;100135.41;130280;1267;108962;-74
2022/01/10 05:43:59;;;;;;;38.90;16.60;;;;;;;-2.30;71.84;100141.98;130421;1267;108660;-75
2022/01/10 05:47:05;;;;;;;37.10;16.50;;;;;;;-2.31;71.84;100150.07;130390;1267;109184;-76
2022/01/10 05:50:17;;;;;;;35.50;16.40;;;;;;;-2.36;71.83;100153.58;130410;1267;108754;-74
2022/01/10 05:53:23;;;;;;;;;;;;;;;-2.41;71.93;100162.85;130442;1267;108949;-75
2022/01/10 05:56:28;;;;;;;39.30;18.70;;;;;;;-2.43;72.19;100165.04;130428;1266;108884;-76
2022/01/10 05:59:37;;;;;;;42.60;18.40;;;;;;;-2.47;72.40;100171.02;130394;1267;108862;-74
2022/01/10 06:02:44;;;;;;;41.10;18.50;;;;;;;-2.52;72.31;100172.63;130362;1267;108804;-75
2022/01/10 06:05:57;;;;;;;34.30;16.30;;;;;;;-2.52;72.56;100181.16;130307;1266;108990;-77
2022/01/10 06:09:04;;;;;;;33.10;15.70;;;;;;;-2.44;72.49;100183.94;130417;1266;108904;-74
2022/01/10 06:12:11;;;;;;;31.60;13.40;;;;;;;-2.36;72.42;100193.83;130436;1267;108851;-74
2022/01/10 06:15:17;;;;;;;38.80;16.70;;;;;;;-2.29;72.34;100196.84;130387;1266;108967;-75
2022/01/10 06:18:24;;;;;;;34.70;16.50;;;;;;;-2.22;72.33;100208.15;130410;1267;108741;-75
2022/01/10 06:21:29;;;;;;;38.20;16.90;;;;;;;-2.18;72.31;100215.77;130469;1267;106821;-75
2022/01/10 06:24:35;;;;;;;36.00;16.60;;;;;;;-2.16;72.30;100224.27;130184;1267;108727;-75
2022/01/10 06:27:42;;;;;;;35.80;17.20;;;;;;;-2.18;72.25;100230.25;130258;1267;108867;-75
2022/01/10 06:30:48;;;;;;;31.10;14.80;;;;;;;-2.20;72.11;100244.84;130486;1267;107700;-77
2022/01/10 06:33:53;;;;;;;31.20;14.70;;;;;;;-2.22;72.26;100254.00;130289;1267;110892;-77
2022/01/10 06:37:01;;;;;;;33.30;15.70;;;;;;;-2.23;72.31;100265.73;130367;1267;108810;-77
2022/01/10 06:40:11;;;;;;;34.10;16.00;;;;;;;-2.24;72.57;100270.63;130275;1267;108909;-76
2022/01/10 06:43:20;;;;;;;34.80;16.40;;;;;;;-2.26;72.55;100279.75;130395;1267;108835;-77
2022/01/10 06:46:26;;;;;;;41.90;18.80;;;;;;;-2.28;72.67;100280.23;130391;1267;108740;-76
2022/01/10 06:49:32;;;;;;;39.00;17.40;;;;;;;-2.30;72.54;100283.96;130437;1267;108824;-77
2022/01/10 06:52:38;;;;;;;39.30;17.90;;;;;;;-2.25;72.68;100281.66;130531;1267;108792;-71
2022/01/10 06:55:43;;;;;;;52.20;22.70;;;;;;;-2.16;72.82;100281.06;130334;1267;108859;-71
2022/01/10 06:58:49;;;;;;;38.90;16.80;;;;;;;-2.04;72.72;100283.07;130310;1267;108607;-71
2022/01/10 07:01:59;;;;;;;35.70;16.70;;;;;;;-1.92;72.93;100290.25;130418;1267;108781;-71
2022/01/10 07:05:06;;;;;;;39.90;18.30;;;;;;;-1.87;72.82;100295.36;130262;1266;107282;-71
2022/01/10 07:08:12;;;;;;;34.40;16.30;;;;;;;-1.84;72.92;100303.81;130333;1267;108651;-70
2022/01/10 07:11:37;;;;;;;38.30;18.00;;;;;;;-1.82;72.95;100310.66;130480;1267;108698;-70
2022/01/10 07:14:43;;;;;;;39.90;19.30;;;;;;;-1.79;72.85;100313.65;130277;1267;108738;-71
2022/01/10 07:17:50;;;;;;;45.60;22.00;;;;;;;-1.75;72.88;100319.05;130440;1267;108972;-70
2022/01/10 07:20:56;;;;;;;47.40;23.20;;;;;;;-1.70;72.83;100323.70;130422;1267;108826;-71
2022/01/10 07:24:02;;;;;;;45.20;22.20;;;;;;;-1.66;72.87;100323.00;130362;1267;108857;-70
2022/01/10 07:27:08;;;;;;;45.80;22.30;;;;;;;-1.63;72.89;100330.35;130212;1267;109353;-71
2022/01/10 07:30:13;;;;;;;45.00;22.20;;;;;;;-1.63;72.88;100339.05;130265;1267;108580;-71
2022/01/10 07:33:19;;;;;;;51.50;23.70;;;;;;;-1.62;72.78;100342.48;130376;1267;108780;-71
2022/01/10 07:36:24;;;;;;;45.50;21.60;;;;;;;-1.60;73.11;100346.06;130371;1267;107205;-71
2022/01/10 07:39:30;;;;;;;43.60;19.90;;;;;;;-1.57;73.19;100349.63;130495;1267;108938;-73
2022/01/10 07:42:35;;;;;;;40.80;20.40;;;;;;;-1.47;73.21;100352.45;130357;1267;108899;-71
2022/01/10 07:45:47;;;;;;;44.30;20.80;;;;;;;-1.36;73.19;100357.28;130390;1267;108784;-71
2022/01/10 07:48:54;;;;;;;44.60;20.80;;;;;;;-1.25;73.06;100365.85;130421;1267;108133;-70
2022/01/10 07:51:59;;;;;;;53.80;24.30;;;;;;;-1.17;73.16;100369.14;130295;1267;108921;-70
2022/01/10 07:55:09;;;;;;;50.70;25.20;;;;;;;-1.10;72.94;100373.68;130312;1267;108638;-71
2022/01/10 07:58:16;;;;;;;38.30;20.10;;;;;;;-1.05;73.19;100375.16;130276;1266;108826;-71
2022/01/10 08:01:22;;;;;;;40.20;20.10;;;;;;;-1.04;72.99;100380.70;130447;1267;106735;-70
2022/01/10 08:04:28;;;;;;;37.70;17.90;;;;;;;-1.04;73.30;100388.91;130424;1267;108765;-71
2022/01/10 08:07:33;;;;;;;37.20;18.70;;;;;;;-1.06;73.21;100399.86;130400;1267;108863;-72
2022/01/10 08:10:39;;;;;;;40.10;20.30;;;;;;;-1.07;73.19;100408.08;130308;1267;109011;-71
2022/01/10 08:13:44;;;;;;;36.80;19.20;;;;;;;-1.08;73.35;100412.69;130327;1267;108891;-70
2022/01/10 08:16:49;;;;;;;54.10;22.10;;;;;;;-1.07;73.39;100415.42;130447;1267;108737;-70
2022/01/10 08:19:55;;;;;;;38.90;18.00;;;;;;;-1.05;73.39;100422.32;130420;1267;108668;-71
2022/01/10 08:23:00;;;;;;;38.00;17.90;;;;;;;-1.05;73.45;100420.75;130526;1267;108827;-70
2022/01/10 08:26:08;;;;;;;38.20;18.60;;;;;;;-0.98;73.54;100424.95;130380;1266;108880;-70
2022/01/10 08:29:14;;;;;;;47.10;21.70;;;;;;;-0.90;73.54;100423.52;130221;1267;108889;-71
2022/01/10 08:32:19;;;;;;;32.30;17.00;;;;;;;-0.81;73.48;100438.43;130304;1267;108837;-72
2022/01/10 08:35:24;;;;;;;73.40;27.50;;;;;;;-0.74;73.55;100444.22;130349;1267;109832;-70
2022/01/10 08:38:30;;;;;;;60.40;25.80;;;;;;;-0.71;73.52;100443.86;130448;1267;108790;-71
2022/01/10 08:41:36;;;;;;;56.50;25.80;;;;;;;-0.67;73.51;100452.58;130368;1267;108671;-68
2022/01/10 08:44:41;;;;;;;46.60;22.00;;;;;;;-0.65;73.68;100463.63;130295;1267;108567;-71
2022/01/10 08:47:47;;;;;;;48.20;22.50;;;;;;;-0.63;73.39;100467.20;130391;1267;108666;-72
2022/01/10 08:50:53;;;;;;;83.10;33.50;;;;;;;-0.62;73.35;100472.59;130394;1267;108921;-71
2022/01/10 08:54:00;;;;;;;138.50;45.60;;;;;;;-0.62;73.59;100472.95;130418;1267;108663;-71
2022/01/10 08:57:07;;;;;;;122.90;40.20;;;;;;;-0.62;73.32;100473.09;130444;1267;109628;-71
2022/01/10 09:00:13;;;;;;;93.80;31.40;;;;;;;-0.61;73.57;100481.44;130449;1267;108983;-71
2022/01/10 09:03:19;;;;;;;77.20;25.90;;;;;;;-0.59;73.39;100483.11;130332;1267;109365;-70
2022/01/10 09:06:25;;;;;;;63.60;25.30;;;;;;;-0.55;73.59;100483.09;130341;1267;108731;-71
2022/01/10 09:09:30;;;;;;;51.70;25.60;;;;;;;-0.48;73.60;100486.91;130420;1267;108692;-71
2022/01/10 09:12:37;;;;;;;41.90;20.50;;;;;;;-0.39;73.41;100493.46;130324;1267;108729;-71
2022/01/10 09:15:43;;;;;;;40.20;21.20;;;;;;;-0.32;73.44;100494.33;130287;1267;108672;-71
2022/01/10 09:18:48;;;;;;;34.10;16.90;;;;;;;-0.24;73.36;100496.91;130408;1267;108705;-72
2022/01/10 09:21:53;;;;;;;28.00;15.00;;;;;;;-0.18;73.02;100502.39;130331;1266;108870;-71
2022/01/10 09:25:00;;;;;;;27.90;14.60;;;;;;;-0.15;73.08;100512.21;130435;1267;108730;-71
2022/01/10 09:28:06;;;;;;;33.90;16.30;;;;;;;-0.13;73.05;100519.23;130394;1267;108796;-71
2022/01/10 09:31:12;;;;;;;37.50;18.40;;;;;;;-0.11;73.02;100525.29;130491;1267;108765;-71
2022/01/10 09:34:18;;;;;;;41.80;22.60;;;;;;;-0.10;73.25;100529.04;130441;1266;108941;-71
2022/01/10 09:37:25;;;;;;;31.30;16.40;;;;;;;-0.09;72.98;100532.17;130462;1267;108803;-71
2022/01/10 09:40:31;;;;;;;36.00;19.90;;;;;;;-0.10;73.05;100534.67;130377;1267;108952;-71
2022/01/10 09:43:37;;;;;;;38.40;18.50;;;;;;;-0.11;73.05;100534.73;130389;1267;108620;-71
2022/01/10 09:46:42;;;;;;;32.80;16.80;;;;;;;-0.13;73.19;100543.38;130428;1267;108664;-71
2022/01/10 09:49:48;;;;;;;36.80;18.40;;;;;;;-0.16;73.16;100540.56;130466;1267;107336;-71
2022/01/10 09:52:54;;;;;;;39.60;20.80;;;;;;;-0.18;73.30;100540.48;130473;1267;108942;-72
2022/01/10 09:55:59;;;;;;;37.30;19.70;;;;;;;-0.13;73.48;100543.56;130411;1267;107575;-71
2022/01/10 09:59:06;;;;;;;38.90;20.50;;;;;;;-0.05;73.52;100551.02;130378;1267;108703;-71
2022/01/10 10:02:12;;;;;;;33.80;17.80;;;;;;;0.01;73.74;100550.36;130426;1267;106682;-72
2022/01/10 10:05:21;;;;;;;39.20;20.10;;;;;;;0.10;73.33;100552.86;130310;1267;108876;-72
2022/01/10 10:13:02;;;;;;;50.90;27.30;;;;;;;0.19;73.30;100554.52;130369;1267;108701;-71
2022/01/10 10:16:12;;;;;;;44.70;23.10;;;;;;;0.19;73.57;100561.32;130358;1267;108695;-71
2022/01/10 10:23:54;;;;;;;46.90;25.20;;;;;;;0.19;73.61;100571.47;130405;1267;109663;-72
2022/01/10 10:27:00;;;;;;;49.30;25.50;;;;;;;0.21;73.74;100576.42;130340;1267;108980;-72
2022/01/10 10:30:11;;;;;;;66.50;31.60;;;;;;;0.22;73.64;100577.42;130401;1267;108661;-71
2022/01/10 10:33:19;;;;;;;61.60;30.10;;;;;;;0.24;73.64;100586.12;130356;1267;108713;-71
2022/01/10 10:37:12;;;;;;;54.10;25.00;;;;;;;0.28;73.70;100590.23;130396;1267;108785;-71
2022/01/10 10:40:17;;;;;;;57.10;26.80;;;;;;;0.39;73.68;100599.69;130377;1267;108726;-72
2022/01/10 10:43:24;;;;;;;56.00;29.00;;;;;;;0.45;73.43;100602.86;130333;1267;108731;-71
2022/01/10 10:46:29;;;;;;;60.80;31.70;;;;;;;0.51;73.57;100605.86;130307;1267;107609;-72
2022/01/10 10:49:38;;;;;;;60.80;31.70;;;;;;;0.52;73.22;100609.99;130201;1267;107826;-72
2022/01/10 10:52:44;;;;;;;53.40;26.00;;;;;;;0.53;73.36;100613.64;130262;1267;109618;-72
2022/01/10 10:55:50;;;;;;;55.60;26.80;;;;;;;0.50;73.29;100620.80;130338;1267;108618;-71
2022/01/10 10:58:57;;;;;;;58.20;26.10;;;;;;;0.43;73.28;100629.07;130409;1267;108728;-70
2022/01/10 11:02:03;;;;;;;55.20;27.60;;;;;;;0.37;73.35;100633.37;130421;1267;108844;-71
2022/01/10 11:05:09;;;;;;;58.30;28.60;;;;;;;0.28;73.39;100634.00;130347;1267;108843;-71
2022/01/10 11:08:22;;;;;;;62.30;29.00;;;;;;;0.24;73.65;100642.97;130385;1267;108876;-71
2022/01/10 11:11:28;;;;;;;69.00;30.90;;;;;;;0.21;73.53;100648.89;130344;1267;108776;-72
2022/01/10 11:14:34;;;;;;;63.80;27.50;;;;;;;0.15;73.66;100657.23;130367;1267;106717;-71
2022/01/10 11:17:42;;;;;;;56.90;26.10;;;;;;;0.15;73.72;100657.23;130339;1267;108813;-71
2022/01/10 11:20:50;;;;;;;51.50;24.30;;;;;;;0.18;73.57;100657.23;130349;1268;108803;-71
2022/01/10 11:23:56;;;;;;;56.30;26.30;;;;;;;0.24;73.71;100661.36;130447;1267;108720;-71
2022/01/10 11:27:04;;;;;;;51.80;25.70;;;;;;;0.33;73.51;100670.14;130349;1267;107826;-71
2022/01/10 11:30:44;;;;;;;54.40;25.60;;;;;;;0.40;73.44;100673.66;130345;1267;108784;-71
2022/01/10 11:33:51;;;;;;;53.50;26.10;;;;;;;0.39;73.40;100678.92;130381;1268;108889;-72
2022/01/10 11:36:59;;;;;;;120.20;83.60;;;;;;;0.38;73.23;100683.57;130412;1268;108697;-71
2022/01/10 11:40:07;;;;;;;70.10;35.40;;;;;;;0.27;73.34;100688.46;130335;1266;108730;-71
2022/01/10 11:43:30;;;;;;;64.30;31.90;;;;;;;0.26;73.35;100693.77;130423;1268;108853;-71
2022/01/10 11:46:40;;;;;;;56.50;28.20;;;;;;;0.22;73.53;100697.64;130363;1267;108679;-71
2022/01/10 11:49:46;;;;;;;57.80;28.20;;;;;;;0.21;73.37;100704.69;130297;1269;108289;-72
2022/01/10 11:52:58;;;;;;;56.30;28.00;;;;;;;0.15;73.49;100711.13;130388;1267;107648;-72
2022/01/10 11:56:03;;;;;;;70.40;30.90;;;;;;;0.08;73.43;100714.77;130373;1268;107452;-71
2022/01/10 11:59:11;;;;;;;56.10;25.50;;;;;;;0.12;73.74;100722.12;130405;1268;107718;-71
2022/01/10 12:02:19;;;;;;;49.50;23.50;;;;;;;0.17;73.42;100725.02;130204;1267;201791;-71
2022/01/10 12:05:24;;;;;;;54.40;26.50;;;;;;;0.23;73.40;100727.71;130402;1266;108766;-71
2022/01/10 12:08:30;;;;;;;52.70;25.30;;;;;;;0.24;73.38;100732.56;130343;1268;109780;-72
2022/01/10 12:11:37;;;;;;;58.20;28.50;;;;;;;0.24;73.32;100734.29;130373;1268;108863;-71
2022/01/10 12:14:43;;;;;;;97.60;52.80;;;;;;;0.26;73.28;100741.20;130330;1268;108653;-72
2022/01/10 12:17:49;;;;;;;66.30;32.00;;;;;;;0.29;73.22;100744.38;130411;1267;107641;-71
2022/01/10 12:20:55;;;;;;;61.20;31.80;;;;;;;0.26;73.34;100745.56;130398;1267;108735;-71
2022/01/10 12:24:01;;;;;;;68.50;35.90;;;;;;;0.26;73.33;100751.52;130353;1268;108883;-72
2022/01/10 12:27:09;;;;;;;97.50;48.50;;;;;;;0.28;73.22;100759.27;130422;1267;107368;-71
2022/01/10 12:30:16;;;;;;;92.20;44.10;;;;;;;0.32;73.09;100758.38;130408;1267;105777;-71
2022/01/10 12:33:21;;;;;;;65.60;32.10;;;;;;;0.36;73.18;100761.69;130385;1267;106868;-71
2022/01/10 12:36:28;;;;;;;138.20;64.10;;;;;;;0.35;73.13;100765.95;130392;1268;108250;-71
2022/01/10 12:39:40;;;;;;;65.50;30.30;;;;;;;0.35;73.15;100770.84;130362;1266;108720;-69
2022/01/10 12:42:53;;;;;;;68.00;32.50;;;;;;;0.39;72.84;100777.63;130376;1266;108759;-71
2022/01/10 12:45:58;;;;;;;55.70;26.50;;;;;;;0.41;72.77;100783.36;130390;1268;108705;-72
2022/01/10 12:49:06;;;;;;;50.00;26.70;;;;;;;0.42;72.67;100788.03;130429;1266;108801;-71
2022/01/10 12:52:13;;;;;;;49.90;25.90;;;;;;;0.39;72.64;100794.42;131692;1268;108730;-72
2022/01/10 12:55:18;;;;;;;44.70;22.70;;;;;;;0.39;72.85;100805.50;130384;1268;108872;-71
2022/01/10 12:58:24;;;;;;;43.30;21.50;;;;;;;0.34;72.91;100816.23;130369;1268;108855;-71
2022/01/10 13:01:30;;;;;;;46.00;23.40;;;;;;;0.24;72.92;100820.91;130475;1268;107881;-72
2022/01/10 13:04:37;;;;;;;52.90;27.20;;;;;;;0.15;73.04;100822.90;130406;1268;108865;-71
2022/01/10 13:07:44;;;;;;;51.90;26.20;;;;;;;0.13;73.32;100830.18;130403;1266;108242;-72
2022/01/10 13:10:52;;;;;;;45.00;22.60;;;;;;;0.06;73.24;100840.11;130423;1268;108754;-70
2022/01/10 13:14:08;;;;;;;45.30;23.20;;;;;;;-0.02;73.13;100843.10;130454;1268;108130;-72
2022/01/10 13:17:13;;;;;;;53.40;24.40;;;;;;;-0.09;73.06;100844.96;130358;1268;108695;-72
2022/01/10 13:20:20;;;;;;;55.10;25.00;;;;;;;-0.12;73.13;100852.11;130401;1267;108886;-71
2022/01/10 13:23:31;;;;;;;50.30;23.90;;;;;;;-0.08;73.41;100853.35;130227;1268;108711;-71
2022/01/10 13:26:54;;;;;;;43.60;19.30;;;;;;;-0.01;73.26;100864.42;130349;1268;108805;-71
2022/01/10 13:30:11;;;;;;;45.80;21.80;;;;;;;0.01;73.10;100869.93;130345;1267;107379;-70
2022/01/10 13:33:16;;;;;;;36.90;19.00;;;;;;;0.00;73.11;100875.89;130321;1268;108837;-72
2022/01/10 13:36:21;;;;;;;39.50;19.30;;;;;;;-0.09;72.78;100882.59;130363;1267;109263;-71
2022/01/10 13:39:28;;;;;;;41.80;19.80;;;;;;;-0.14;72.66;100885.96;130201;1268;108722;-69
2022/01/10 13:42:39;;;;;;;41.70;19.30;;;;;;;-0.22;72.92;100892.42;130247;1268;107635;-71
2022/01/10 13:45:49;;;;;;;41.60;19.70;;;;;;;-0.31;72.82;100903.16;130426;1267;108948;-71
2022/01/10 13:48:59;;;;;;;41.20;20.20;;;;;;;-0.39;72.77;100913.65;130337;1267;108561;-71
2022/01/10 13:52:12;;;;;;;40.50;19.00;;;;;;;-0.46;72.88;100915.54;130364;1267;106663;-71
2022/01/10 13:55:19;;;;;;;44.50;19.40;;;;;;;-0.54;72.88;100915.00;130385;1268;108850;-72
2022/01/10 13:58:30;;;;;;;40.20;19.10;;;;;;;-0.59;73.22;100919.92;130317;1268;108597;-71
2022/01/10 14:01:40;;;;;;;43.50;21.10;;;;;;;-0.64;73.09;100924.69;130363;1268;108301;-71
2022/01/10 14:04:45;;;;;;;42.20;20.20;;;;;;;-0.69;73.02;100929.61;130339;1268;109800;-71
2022/01/10 14:07:51;;;;;;;44.00;20.50;;;;;;;-0.76;72.90;100936.21;130435;1268;108728;-73